Santa Paula, CA

10:55 AM PST on December 04, 2016 (GMT -0800)
Hillsborough | | Change Station

Elev 571 ft 34.36 °N, 119.07 °W | Updated 1 second ago

Clear
Clear
70.5 °F
Feels Like 74 °F
N
0.9
Wind Variable Wind from SSW
Gusts 2.5 mph

Today
High -- | Low -- °F
--% Chance of Precip.
Yesterday
High -- | Low -- °F
Precip. -- in
Pressure 30.12 in
Visibility 10.0 miles
Clouds Clear
Heat Index 74 °F
Dew Point 28 °F
Humidity 20%
Rainfall 0.00 in
Snow Depth Not available.
6:47 AM 4:45 PM
Waxing Crescent, 24% visible
METAR KCMA 041755Z 00000KT 10SM CLR 17/02 A3009 RMK AO2 SLP199 T01670022 10167 20050 53008
Pressure 30.12 in
Visibility 10.0 miles
Clouds Clear
Heat Index 74 °F
Dew Point 28 °F
Humidity 20%
Rainfall 0.00 in
Snow Depth Not available.
6:47 AM 4:45 PM
Waxing Crescent, 24% visible
METAR KCMA 041755Z 00000KT 10SM CLR 17/02 A3009 RMK AO2 SLP199 T01670022 10167 20050 53008

10-Day Weather Forecast

Almanac

Astronomy

Dec. 04, 2016 Rise Set
Actual Time
Civil Twilight
Nautical Twilight
Astronomical Twilight
Moon
Length of Visible Light
Length of Day
Tomorrow will be .
, % of the Moon is Illuminated

Today's Extremes

State Highs State Lows

Community

WunderPhotos

Upload Photos

1,955,642 photos uploaded!

WunderBlog® & News

Nearby

Air Quality

  Air Quality AQ Index Pollutant
Not available.

Snow Depth

Station Depth Elevation

Earthquake Activity

City Distance Mag. Time & Date
Minimum magnitude displayed is 2.5.

Coastal Water Temperatures

Place Temperature

Stations

Nearby Weather Stations

Station Location Temp. Windchill Dew Point Humidity Wind Precip. Elev Updated Type
                   

Watches & Warnings

There are currently no watches in effect.